Airfield :
LOGIN :

Register | Disclaimer

   EN    FR    IT 

 










Legend :    VFR   Marginal VFR   IFR   Intensive IFR   Very Intensive IFR
Visi :
Ceiling :
>= 8 km
>= 3000ft
5 to 8 km
1000 to 3000 ft
1500m to 5 km
500 to 1000 ft
800 to 1500m
200 to 500 ft
< 800m
< 200 ft
Symbols :   Thunderstorms  Fog  Heavy snow  Heavy precipitations  Wind > 20 kt
SIGMETs :     Misc.  Thunderstorms  Icing  Turbulence  Mountain Waves  Volcanic Ashes







- Airport Elevation : 52 ft
- IATA code : IOM
- Download approach charts


EGNS - Isle of Man

CURRENT METAR :
  • 171350Z 34008KT 270V040 9999 FEW025 15/07 Q1028 NOSIG

EXPIRED METARs :
  • 171320Z 33012KT 280V010 9999 FEW025 15/07 Q1027 NOSIG
  • 171250Z 32010KT 270V010 9999 FEW025 15/07 Q1027 NOSIG
  • 171220Z 32011KT 260V010 9999 FEW025 15/07 Q1027 NOSIG
  • 171150Z 31008KT 230V020 9999 FEW025 15/08 Q1027 NOSIG
  • 171120Z 33010KT 260V010 9999 SCT023 15/09 Q1027 NOSIG
  • 171050Z 32011KT 270V360 9999 FEW023 15/08 Q1027 NOSIG

TAF TAF EGNS
Valid from the 17 at 12:00 until the 17 at 21:00 UTC


171100Z 1712/1721 32010KT 9999 FEW025
No reported NOTAMs for that airfield.



MET'MAP, your aeronautical weather chart ! - Copyright ORBIFLY December 2007 - Disclaimer

ORBIFLY MET'MAP TEAM :

Programming & Development : Alexandra Zaïnal
Concept & Development : Baudouin d'Aumeries
Co-Development & Prog : Marc-Olivier Méhu
Technical & hardware support : Manuel Goepfert

Contact : metmap@orbifly.com




SOURCES & CREDITS :

   NOAA